createdAt,value
2022-12-20T00:00:09.419Z,16.00
2022-12-20T00:02:40.462Z,8.63
2022-12-20T00:05:11.513Z,14.00
2022-12-20T00:07:41.772Z,13.43
2022-12-20T00:10:15.011Z,11.40
2022-12-20T00:12:45.259Z,13.20
2022-12-20T00:15:15.649Z,10.18
2022-12-20T00:17:46.090Z,9.65
2022-12-20T00:20:16.891Z,13.80
2022-12-20T00:22:47.225Z,10.77
2022-12-20T00:25:20.930Z,11.75
2022-12-20T00:27:51.746Z,16.23
2022-12-20T00:30:22.269Z,10.43
2022-12-20T00:32:52.930Z,11.27
2022-12-20T00:35:23.266Z,12.10
2022-12-20T00:37:55.140Z,15.35
2022-12-20T00:40:28.317Z,13.45
2022-12-20T00:42:58.621Z,11.32
2022-12-20T00:45:28.933Z,13.80
2022-12-20T00:47:59.306Z,9.32
2022-12-20T00:50:29.806Z,14.02
2022-12-20T00:53:00.116Z,12.60
2022-12-20T00:55:33.151Z,14.52
2022-12-20T00:58:03.627Z,11.90
2022-12-20T01:00:33.899Z,10.65
2022-12-20T01:03:05.760Z,10.45
2022-12-20T01:05:36.277Z,13.60
2022-12-20T01:08:07.149Z,9.57
2022-12-20T01:10:40.141Z,14.90
2022-12-20T01:13:10.408Z,15.57
2022-12-20T01:15:40.767Z,15.15
2022-12-20T01:18:11.104Z,13.00
2022-12-20T01:20:41.370Z,16.45
2022-12-20T01:23:11.622Z,13.30
2022-12-20T01:25:44.951Z,14.13
2022-12-20T01:28:15.350Z,10.48
2022-12-20T01:30:45.662Z,9.27
2022-12-20T01:33:16.001Z,18.73
2022-12-20T01:35:46.299Z,20.02
2022-12-20T01:38:16.603Z,9.55
2022-12-20T01:40:49.528Z,13.98
2022-12-20T01:43:21.680Z,15.23
2022-12-20T01:45:52.814Z,11.75
2022-12-20T01:48:27.668Z,16.55
2022-12-20T01:50:57.935Z,12.23
2022-12-20T01:53:28.330Z,12.27
2022-12-20T01:56:06.734Z,11.63
2022-12-20T01:58:40.197Z,15.13
2022-12-20T02:01:11.153Z,13.63
2022-12-20T02:03:41.674Z,15.75
2022-12-20T02:06:20.306Z,15.85
2022-12-20T02:08:53.239Z,15.38
2022-12-20T02:11:44.052Z,11.75
2022-12-20T02:14:21.977Z,15.52
2022-12-20T02:17:00.438Z,13.68
2022-12-20T02:20:06.412Z,16.42
2022-12-20T02:22:49.259Z,14.93
2022-12-20T02:25:46.039Z,12.30
2022-12-20T02:28:33.386Z,13.90
2022-12-20T02:31:11.864Z,17.20
2022-12-20T02:33:44.738Z,15.32
2022-12-20T02:36:17.105Z,14.82
2022-12-20T02:38:48.703Z,11.23
2022-12-20T02:41:25.204Z,15.93
2022-12-20T02:44:11.083Z,13.23
2022-12-20T02:46:45.040Z,14.38
2022-12-20T02:49:19.472Z,15.05
2022-12-20T02:51:53.806Z,16.20
2022-12-20T02:54:24.808Z,15.63
2022-12-20T02:57:00.371Z,17.08
2022-12-20T02:59:38.791Z,17.15
2022-12-20T03:02:13.301Z,18.50
2022-12-20T03:04:44.940Z,15.77
2022-12-20T03:07:17.259Z,21.73
2022-12-20T03:09:48.453Z,24.35
2022-12-20T03:12:19.323Z,18.10
2022-12-20T03:14:49.582Z,18.80
2022-12-20T03:17:23.306Z,17.02
2022-12-20T03:19:53.602Z,19.60
2022-12-20T03:22:24.110Z,19.13
2022-12-20T03:24:54.431Z,15.25
2022-12-20T03:27:26.122Z,28.00
2022-12-20T03:29:56.532Z,21.35
2022-12-20T03:32:29.765Z,19.23
2022-12-20T03:35:00.033Z,19.58
2022-12-20T03:37:36.750Z,22.50
2022-12-20T03:40:10.416Z,20.52
2022-12-20T03:42:41.136Z,17.20
2022-12-20T03:45:12.683Z,17.95
2022-12-20T03:47:45.850Z,16.77
2022-12-20T03:50:16.557Z,21.40
2022-12-20T03:52:47.284Z,17.27
2022-12-20T03:55:17.766Z,24.33
2022-12-20T03:57:49.228Z,15.98
2022-12-20T04:00:33.732Z,22.42
2022-12-20T04:03:26.672Z,16.67
2022-12-20T04:05:57.801Z,26.90
2022-12-20T04:08:28.162Z,21.05
2022-12-20T04:11:11.198Z,21.17
2022-12-20T04:13:43.546Z,13.52
2022-12-20T04:16:14.636Z,13.93
2022-12-20T04:18:47.882Z,17.33
2022-12-20T04:21:19.013Z,15.25
2022-12-20T04:23:51.156Z,19.88
2022-12-20T04:26:22.083Z,15.88
2022-12-20T04:28:53.105Z,22.38
2022-12-20T04:31:24.432Z,23.90
2022-12-20T04:33:59.222Z,16.55
2022-12-20T04:36:29.798Z,17.60
2022-12-20T04:39:02.661Z,22.38
2022-12-20T04:41:39.945Z,20.98
2022-12-20T04:44:14.515Z,21.52
2022-12-20T04:46:45.004Z,23.02
2022-12-20T04:49:21.358Z,17.15
2022-12-20T04:51:51.857Z,15.52
2022-12-20T04:54:20.066Z,29.63
2022-12-20T04:57:00.132Z,15.70
2022-12-20T04:59:30.886Z,25.35
2022-12-20T05:02:01.362Z,21.45
2022-12-20T05:04:48.948Z,18.48
2022-12-20T05:07:20.121Z,16.25
2022-12-20T05:09:56.710Z,20.23
2022-12-20T05:12:26.983Z,16.48
2022-12-20T05:15:01.174Z,23.15
2022-12-20T05:17:31.513Z,23.92
2022-12-20T05:20:06.275Z,15.48
2022-12-20T05:22:49.130Z,16.23
2022-12-20T05:25:32.226Z,14.95
2022-12-20T05:28:07.199Z,16.95
2022-12-20T05:30:39.994Z,25.98
2022-12-20T05:33:11.401Z,23.83
2022-12-20T05:35:47.386Z,21.67
2022-12-20T05:38:19.217Z,18.83
2022-12-20T05:40:51.266Z,27.08
2022-12-20T05:43:22.733Z,14.90
2022-12-20T05:45:55.313Z,18.38
2022-12-20T05:48:34.571Z,15.38
2022-12-20T05:51:07.750Z,21.55
2022-12-20T05:53:50.809Z,13.65
2022-12-20T05:56:25.648Z,19.63
2022-12-20T05:58:56.091Z,16.42
2022-12-20T06:01:26.748Z,12.98
2022-12-20T06:04:01.897Z,14.75
2022-12-20T06:06:35.605Z,18.00
2022-12-20T06:09:05.937Z,15.27
2022-12-20T06:14:15.718Z,13.68
2022-12-20T06:16:51.497Z,17.15
2022-12-20T06:19:23.192Z,14.25
2022-12-20T06:21:59.583Z,21.77
2022-12-20T06:24:44.297Z,15.98
2022-12-20T06:27:18.650Z,17.25
2022-12-20T06:29:54.497Z,14.52
2022-12-20T06:32:29.007Z,14.25
2022-12-20T06:34:59.374Z,12.80
2022-12-20T06:37:32.400Z,17.35
2022-12-20T06:40:02.954Z,14.75
2022-12-20T06:42:33.797Z,15.27
2022-12-20T06:45:04.135Z,10.88
2022-12-20T06:47:34.705Z,12.75
2022-12-20T06:50:06.500Z,12.60
2022-12-20T06:52:39.619Z,15.85
2022-12-20T06:55:10.655Z,15.02
2022-12-20T06:57:43.682Z,18.08
2022-12-20T07:00:16.741Z,13.60
2022-12-20T07:02:47.741Z,12.63
2022-12-20T07:05:18.306Z,14.35
2022-12-20T07:07:51.199Z,16.17
2022-12-20T07:10:21.707Z,12.20
2022-12-20T07:12:52.000Z,14.35
2022-12-20T07:15:22.253Z,16.38
2022-12-20T07:17:52.617Z,15.90
2022-12-20T07:20:22.900Z,15.68
2022-12-20T07:22:55.814Z,22.40
2022-12-20T07:25:26.250Z,20.23
2022-12-20T07:27:56.522Z,16.27
2022-12-20T07:30:26.937Z,17.83
2022-12-20T07:32:57.282Z,17.92
2022-12-20T07:35:27.723Z,18.08
2022-12-20T07:38:00.861Z,16.92
2022-12-20T07:40:31.178Z,15.57
2022-12-20T07:43:01.487Z,16.40
2022-12-20T07:45:31.876Z,13.70
2022-12-20T07:48:09.391Z,10.60
2022-12-20T07:50:44.593Z,14.27
2022-12-20T07:53:18.090Z,12.07
2022-12-20T07:55:48.714Z,15.73
2022-12-20T07:58:21.739Z,17.98
2022-12-20T08:00:53.343Z,14.45
2022-12-20T08:03:26.222Z,18.75
2022-12-20T08:05:59.372Z,12.60
2022-12-20T08:08:32.867Z,15.27
2022-12-20T08:11:04.756Z,17.95
2022-12-20T08:13:39.492Z,22.23
2022-12-20T08:16:14.751Z,16.35
2022-12-20T08:18:45.161Z,16.50
2022-12-20T08:21:16.498Z,18.63
2022-12-20T08:23:49.545Z,19.05
2022-12-20T08:26:20.285Z,20.13
2022-12-20T08:28:50.652Z,14.20
2022-12-20T08:31:21.152Z,17.38
2022-12-20T08:33:51.789Z,21.50
2022-12-20T08:36:22.215Z,19.52
2022-12-20T08:38:55.134Z,17.88
2022-12-20T08:41:25.625Z,21.55
2022-12-20T08:43:56.294Z,26.23
2022-12-20T08:46:26.813Z,20.80
2022-12-20T08:48:57.166Z,22.85
2022-12-20T08:51:27.621Z,19.33
2022-12-20T08:54:00.596Z,18.70
2022-12-20T08:56:31.280Z,30.33
2022-12-20T08:59:01.570Z,22.73
2022-12-20T09:01:33.845Z,21.95
2022-12-20T09:04:04.395Z,30.63
2022-12-20T09:06:34.896Z,23.67
2022-12-20T09:09:08.545Z,17.73
2022-12-20T09:11:38.979Z,23.05
2022-12-20T09:14:09.468Z,26.10
2022-12-20T09:16:40.022Z,18.52
2022-12-20T09:19:10.426Z,18.77
2022-12-20T09:21:40.745Z,17.60
2022-12-20T09:24:14.046Z,12.23
2022-12-20T09:26:45.676Z,20.92
2022-12-20T09:29:25.853Z,18.70
2022-12-20T09:31:58.911Z,20.23
2022-12-20T09:34:29.374Z,14.40
2022-12-20T09:36:59.652Z,21.88
2022-12-20T09:39:32.690Z,27.95
2022-12-20T09:42:03.355Z,19.20
2022-12-20T09:44:36.860Z,19.35
2022-12-20T09:47:11.168Z,20.40
2022-12-20T09:49:47.086Z,22.85
2022-12-20T09:52:38.074Z,22.20
2022-12-20T09:55:25.186Z,17.65
2022-12-20T09:58:04.721Z,22.88
2022-12-20T10:00:39.061Z,15.75
2022-12-20T10:03:10.945Z,18.42
2022-12-20T10:05:50.172Z,16.17
2022-12-20T10:08:40.126Z,18.58
2022-12-20T10:11:26.482Z,21.38
2022-12-20T10:14:05.898Z,16.98
2022-12-20T10:16:45.281Z,20.35
2022-12-20T10:19:34.333Z,15.40
2022-12-20T10:22:11.662Z,18.35
2022-12-20T10:24:44.006Z,19.33
2022-12-20T10:27:20.451Z,13.82
2022-12-20T10:29:52.684Z,18.98
2022-12-20T10:32:27.886Z,20.08
2022-12-20T10:35:19.686Z,21.10
2022-12-20T10:38:09.518Z,13.77
2022-12-20T10:43:43.423Z,15.45
2022-12-20T10:46:15.017Z,16.52
2022-12-20T10:48:47.019Z,20.23
2022-12-20T10:51:19.939Z,21.83
2022-12-20T10:53:56.120Z,13.80
2022-12-20T10:56:30.420Z,17.00
2022-12-20T10:59:06.133Z,16.80
2022-12-20T11:01:39.383Z,13.98
2022-12-20T11:04:24.761Z,16.75
2022-12-20T11:06:56.124Z,18.95
2022-12-20T11:09:33.668Z,16.58
2022-12-20T11:12:07.856Z,18.05
2022-12-20T11:14:41.967Z,20.73
2022-12-20T11:17:27.881Z,19.92
2022-12-20T11:20:11.609Z,16.88
2022-12-20T11:22:51.936Z,17.67
2022-12-20T11:25:52.188Z,16.95
2022-12-20T11:28:46.220Z,16.25
2022-12-20T11:31:28.391Z,18.60
2022-12-20T11:34:07.318Z,15.15
2022-12-20T11:36:50.819Z,13.80
2022-12-20T11:39:31.032Z,14.15
2022-12-20T11:42:08.886Z,22.63
2022-12-20T11:45:03.436Z,20.60
2022-12-20T11:47:58.705Z,18.73
2022-12-20T11:50:45.493Z,17.40
2022-12-20T11:53:24.036Z,15.02
2022-12-20T11:55:59.179Z,13.00
2022-12-20T11:58:34.942Z,12.07
2022-12-20T12:01:12.963Z,13.68
2022-12-20T12:03:56.427Z,14.10
2022-12-20T12:06:29.810Z,9.95
2022-12-20T12:09:11.816Z,10.75
2022-12-20T12:14:47.253Z,10.57
2022-12-20T12:17:24.846Z,10.43
2022-12-20T12:20:04.909Z,9.90
2022-12-20T12:22:39.425Z,8.25
2022-12-20T12:25:17.153Z,10.27
2022-12-20T12:27:47.817Z,8.35
2022-12-20T12:30:19.592Z,8.35
2022-12-20T12:32:56.566Z,7.32
2022-12-20T12:36:00.337Z,5.70
2022-12-20T12:39:06.213Z,7.15
2022-12-20T12:42:02.695Z,7.20
2022-12-20T12:44:47.008Z,8.18
2022-12-20T12:47:24.032Z,7.05
2022-12-20T12:49:58.323Z,6.38
2022-12-20T12:52:46.275Z,8.75
2022-12-20T12:55:49.116Z,6.72
2022-12-20T12:58:48.332Z,6.07
2022-12-20T13:01:52.052Z,8.63
2022-12-20T13:04:33.404Z,8.77
2022-12-20T13:07:06.515Z,9.90
2022-12-20T13:09:44.770Z,12.50
2022-12-20T13:12:50.482Z,10.90
2022-12-20T13:16:02.770Z,12.52
2022-12-20T13:18:33.045Z,9.75
2022-12-20T13:21:33.383Z,11.23
2022-12-20T13:24:42.763Z,19.02
2022-12-20T13:27:39.209Z,10.63
2022-12-20T13:30:30.670Z,8.35
2022-12-20T13:33:26.271Z,8.32
2022-12-20T13:36:21.078Z,10.20
2022-12-20T13:38:57.084Z,13.93
2022-12-20T13:41:37.465Z,9.37
2022-12-20T13:44:38.679Z,7.90
2022-12-20T13:47:30.175Z,8.25
2022-12-20T13:50:04.608Z,11.43
2022-12-20T13:52:36.938Z,7.80
2022-12-20T13:55:18.698Z,9.13
2022-12-20T13:57:49.227Z,7.25
2022-12-20T14:00:27.186Z,44.42
2022-12-20T14:02:58.606Z,10.20
2022-12-20T14:05:34.749Z,11.32
2022-12-20T14:08:08.198Z,9.70
2022-12-20T14:10:39.262Z,11.38
2022-12-20T14:13:24.000Z,8.20
2022-12-20T14:15:57.768Z,6.10
2022-12-20T14:18:29.323Z,7.65
2022-12-20T14:21:02.302Z,7.32
2022-12-20T14:23:40.803Z,5.72
2022-12-20T14:26:14.916Z,6.03
2022-12-20T14:28:49.178Z,7.45
2022-12-20T14:31:33.392Z,10.75
2022-12-20T14:34:14.684Z,8.35
2022-12-20T14:36:47.210Z,11.77
2022-12-20T14:39:26.773Z,8.93
2022-12-20T14:42:01.563Z,7.90
2022-12-20T14:44:33.787Z,6.60
2022-12-20T14:47:17.978Z,6.90
2022-12-20T14:49:52.911Z,8.07
2022-12-20T14:52:32.427Z,8.10
2022-12-20T14:55:08.426Z,10.20
2022-12-20T14:57:48.802Z,10.52
2022-12-20T15:00:25.650Z,12.93
2022-12-20T15:03:03.294Z,8.45
2022-12-20T15:05:54.802Z,5.72
2022-12-20T15:08:29.697Z,4.57
2022-12-20T15:11:03.820Z,2.38
2022-12-20T15:13:36.827Z,2.53
2022-12-20T15:16:09.811Z,4.78
2022-12-20T15:18:45.613Z,2.38
2022-12-20T15:21:19.886Z,1.63
2022-12-20T15:23:52.234Z,2.28
2022-12-20T15:26:24.509Z,2.22
2022-12-20T15:28:57.280Z,2.78
2022-12-20T15:31:33.724Z,2.90
2022-12-20T15:36:38.504Z,2.38
2022-12-20T15:39:13.275Z,1.90
2022-12-20T15:41:50.279Z,2.45
2022-12-20T15:44:23.668Z,2.95
2022-12-20T15:46:54.395Z,3.42
2022-12-20T15:49:33.984Z,4.72
2022-12-20T15:52:04.368Z,4.60
2022-12-20T15:54:37.319Z,2.00
2022-12-20T15:57:10.234Z,4.25
2022-12-20T16:02:32.943Z,4.60
2022-12-20T16:05:06.720Z,2.40
2022-12-20T16:07:37.093Z,4.97
2022-12-20T16:10:08.811Z,3.85
2022-12-20T16:12:39.730Z,3.72
2022-12-20T16:15:21.981Z,3.28
2022-12-20T16:17:52.453Z,26.38
2022-12-20T16:20:27.628Z,6.10
2022-12-20T16:22:58.078Z,5.25
2022-12-20T16:25:31.748Z,17.92
2022-12-20T16:28:02.502Z,10.15
2022-12-20T16:30:33.242Z,3.75
2022-12-20T16:33:03.680Z,5.88
2022-12-20T16:35:39.058Z,4.90
2022-12-20T16:38:09.284Z,9.68
2022-12-20T16:40:39.665Z,21.38
2022-12-20T16:43:18.450Z,14.18
2022-12-20T16:45:48.804Z,13.70
2022-12-20T16:48:19.078Z,7.00
2022-12-20T16:50:52.083Z,2.78
2022-12-20T16:53:22.357Z,3.95
2022-12-20T16:55:52.558Z,7.43
2022-12-20T16:58:38.610Z,13.27
2022-12-20T17:01:18.431Z,6.57
2022-12-20T17:03:49.481Z,5.85
2022-12-20T17:06:22.530Z,6.07
2022-12-20T17:08:54.294Z,4.47
2022-12-20T17:11:26.867Z,5.20
2022-12-20T17:13:59.137Z,7.72
2022-12-20T17:16:30.704Z,11.73
2022-12-20T17:19:02.203Z,11.52
2022-12-20T17:24:25.329Z,4.05
2022-12-20T17:26:55.659Z,18.45
2022-12-20T17:29:26.050Z,15.10
2022-12-20T17:31:56.384Z,16.00
2022-12-20T17:34:28.682Z,10.02
2022-12-20T17:37:02.045Z,11.45
2022-12-20T17:39:32.336Z,15.63
2022-12-20T17:42:02.642Z,11.40
2022-12-20T17:44:33.511Z,6.78
2022-12-20T17:47:04.067Z,23.65
2022-12-20T17:49:34.771Z,8.45
2022-12-20T17:52:08.097Z,15.00
2022-12-20T17:54:40.255Z,20.63
2022-12-20T17:57:16.241Z,18.80
2022-12-20T17:59:47.217Z,9.20
2022-12-20T18:02:25.268Z,8.75
2022-12-20T18:04:56.048Z,9.55
2022-12-20T18:07:28.987Z,15.68
2022-12-20T18:09:59.370Z,12.63
2022-12-20T18:12:35.642Z,12.80
2022-12-20T18:15:10.329Z,14.38
2022-12-20T18:17:41.063Z,11.48
2022-12-20T18:20:13.187Z,30.27
2022-12-20T18:22:46.122Z,43.75
2022-12-20T18:25:18.387Z,67.30
2022-12-20T18:27:49.366Z,117.65
2022-12-20T18:30:19.809Z,81.35
2022-12-20T18:32:50.119Z,63.10
2022-12-20T18:35:20.620Z,48.58
2022-12-20T18:37:54.031Z,26.00
2022-12-20T18:40:26.461Z,33.22
2022-12-20T18:43:01.053Z,31.30
2022-12-20T18:45:37.604Z,22.25
2022-12-20T18:48:07.966Z,20.90
2022-12-20T18:50:39.343Z,26.30
2022-12-20T18:53:12.550Z,31.30
2022-12-20T18:55:42.908Z,32.38
2022-12-20T18:58:14.499Z,28.73
2022-12-20T19:00:45.314Z,36.20
2022-12-20T19:03:15.913Z,37.20
2022-12-20T19:05:46.487Z,48.55
2022-12-20T19:08:19.511Z,79.28
2022-12-20T19:10:50.160Z,64.82
2022-12-20T19:13:21.367Z,53.85
2022-12-20T19:15:51.820Z,49.42
2022-12-20T19:18:22.100Z,37.40
2022-12-20T19:20:54.059Z,35.13
2022-12-20T19:23:26.994Z,28.50
2022-12-20T19:26:04.633Z,28.27
2022-12-20T19:28:36.605Z,30.38
2022-12-20T19:31:14.261Z,62.85
2022-12-20T19:33:49.788Z,37.92
2022-12-20T19:36:22.607Z,25.48
2022-12-20T19:38:58.304Z,23.80
2022-12-20T19:41:31.413Z,33.15
2022-12-20T19:44:02.107Z,35.15
2022-12-20T19:46:32.740Z,35.78
2022-12-20T19:49:03.655Z,41.60
2022-12-20T19:51:34.528Z,41.92
2022-12-20T19:54:07.783Z,38.08
2022-12-20T19:56:38.206Z,48.35
2022-12-20T19:59:09.238Z,39.63
2022-12-20T20:01:39.710Z,51.08
2022-12-20T20:04:10.253Z,50.90
2022-12-20T20:06:40.861Z,45.67
2022-12-20T20:09:13.897Z,56.65
2022-12-20T20:11:44.321Z,63.67
2022-12-20T20:14:14.678Z,44.53
2022-12-20T20:16:45.136Z,63.08
2022-12-20T20:19:15.814Z,35.85
2022-12-20T20:21:46.451Z,40.13
2022-12-20T20:24:19.847Z,46.90
2022-12-20T20:26:50.165Z,49.20
2022-12-20T20:29:20.660Z,39.63
2022-12-20T20:31:51.059Z,30.38
2022-12-20T20:34:21.386Z,50.72
2022-12-20T20:36:51.742Z,34.78
2022-12-20T20:39:24.672Z,33.40
2022-12-20T20:41:54.993Z,34.25
2022-12-20T20:44:25.228Z,37.08
2022-12-20T20:46:55.679Z,36.08
2022-12-20T20:49:26.179Z,26.40
2022-12-20T20:51:56.569Z,33.20
2022-12-20T20:54:29.441Z,27.65
2022-12-20T20:56:59.699Z,36.03
2022-12-20T20:59:30.044Z,31.30
2022-12-20T21:02:00.522Z,33.38
2022-12-20T21:04:31.398Z,39.28
2022-12-20T21:07:01.732Z,35.53
2022-12-20T21:09:34.894Z,36.92
2022-12-20T21:12:05.721Z,36.03
2022-12-20T21:15:02.282Z,35.30
2022-12-20T21:17:26.418Z,37.25
2022-12-20T21:19:56.759Z,38.22
2022-12-20T21:22:27.018Z,45.30
2022-12-20T21:25:00.460Z,31.73
2022-12-20T21:27:30.721Z,44.95
2022-12-20T21:30:01.032Z,49.10
2022-12-20T21:32:31.947Z,57.08
2022-12-20T21:35:02.350Z,42.70
2022-12-20T21:37:33.461Z,61.58
2022-12-20T21:40:06.817Z,39.28
2022-12-20T21:42:37.799Z,87.93
2022-12-20T21:45:12.055Z,38.03
2022-12-20T21:47:42.509Z,69.88
2022-12-20T21:50:14.928Z,36.33
2022-12-20T21:52:45.242Z,46.45
2022-12-20T21:55:18.331Z,49.65
2022-12-20T21:57:48.940Z,30.92
2022-12-20T22:00:20.068Z,35.22
2022-12-20T22:02:50.441Z,34.83
2022-12-20T22:05:20.864Z,38.47
2022-12-20T22:07:51.177Z,34.17
2022-12-20T22:10:24.060Z,43.50
2022-12-20T22:12:54.332Z,40.50
2022-12-20T22:15:24.767Z,38.05
2022-12-20T22:17:55.075Z,33.50
2022-12-20T22:20:25.648Z,27.77
2022-12-20T22:22:56.763Z,39.38
2022-12-20T22:25:29.913Z,48.30
2022-12-20T22:28:00.286Z,50.30
2022-12-20T22:30:30.564Z,43.35
2022-12-20T22:33:01.037Z,42.10
2022-12-20T22:35:31.380Z,43.80
2022-12-20T22:38:02.025Z,46.78
2022-12-20T22:40:34.895Z,40.50
2022-12-20T22:43:05.223Z,38.83
2022-12-20T22:45:35.499Z,46.67
2022-12-20T22:48:05.908Z,33.08
2022-12-20T22:50:36.373Z,37.55
2022-12-20T22:53:06.639Z,47.42
2022-12-20T22:55:41.643Z,50.95
2022-12-20T22:58:12.279Z,53.67
2022-12-20T23:00:45.091Z,37.33
2022-12-20T23:03:15.493Z,40.53
2022-12-20T23:05:55.795Z,51.40
2022-12-20T23:08:27.064Z,44.53
2022-12-20T23:11:12.622Z,42.72
2022-12-20T23:13:55.856Z,42.47
2022-12-20T23:16:26.694Z,36.22
2022-12-20T23:18:57.361Z,33.65
2022-12-20T23:21:41.011Z,48.55
2022-12-20T23:24:11.705Z,38.28
2022-12-20T23:26:45.616Z,41.88
2022-12-20T23:29:16.253Z,43.45
2022-12-20T23:31:46.557Z,36.08
2022-12-20T23:34:17.098Z,36.10
2022-12-20T23:36:47.801Z,34.28
2022-12-20T23:39:18.144Z,40.38
2022-12-20T23:41:51.047Z,40.80
2022-12-20T23:44:21.353Z,41.83
2022-12-20T23:46:51.751Z,44.03
2022-12-20T23:49:22.420Z,27.10
2022-12-20T23:51:52.786Z,35.83
2022-12-20T23:54:23.545Z,23.27
2022-12-20T23:56:56.595Z,26.60
2022-12-20T23:59:26.819Z,19.92
